sensor_id;sensor_type;location;lat;lon;timestamp;P1;durP1;ratioP1;P2;durP2;ratioP2
6598;SDS011;3335;43.198;27.918;2022-07-19T00:02:06;3.33;;;3.00;;
6598;SDS011;3335;43.198;27.918;2022-07-19T00:04:33;5.97;;;3.50;;
6598;SDS011;3335;43.198;27.918;2022-07-19T00:07:00;6.07;;;3.23;;
6598;SDS011;3335;43.198;27.918;2022-07-19T00:09:28;9.43;;;3.17;;
6598;SDS011;3335;43.198;27.918;2022-07-19T00:11:55;5.43;;;3.47;;
6598;SDS011;3335;43.198;27.918;2022-07-19T00:14:23;4.67;;;3.60;;
6598;SDS011;3335;43.198;27.918;2022-07-19T00:16:50;10.00;;;4.07;;
6598;SDS011;3335;43.198;27.918;2022-07-19T00:19:17;7.93;;;3.80;;
6598;SDS011;3335;43.198;27.918;2022-07-19T00:21:44;9.13;;;3.97;;
6598;SDS011;3335;43.198;27.918;2022-07-19T00:24:11;6.43;;;4.10;;
6598;SDS011;3335;43.198;27.918;2022-07-19T00:26:38;6.57;;;3.33;;
6598;SDS011;3335;43.198;27.918;2022-07-19T00:29:05;8.93;;;3.87;;
6598;SDS011;3335;43.198;27.918;2022-07-19T00:31:33;5.77;;;4.07;;
6598;SDS011;3335;43.198;27.918;2022-07-19T00:34:01;8.87;;;4.67;;
6598;SDS011;3335;43.198;27.918;2022-07-19T00:36:28;6.07;;;4.27;;
6598;SDS011;3335;43.198;27.918;2022-07-19T00:38:55;14.33;;;4.87;;
6598;SDS011;3335;43.198;27.918;2022-07-19T00:41:22;8.20;;;4.37;;
6598;SDS011;3335;43.198;27.918;2022-07-19T00:43:49;8.27;;;4.80;;
6598;SDS011;3335;43.198;27.918;2022-07-19T00:46:17;8.80;;;5.50;;
6598;SDS011;3335;43.198;27.918;2022-07-19T00:48:47;11.50;;;5.87;;
6598;SDS011;3335;43.198;27.918;2022-07-19T00:51:16;7.40;;;5.37;;
6598;SDS011;3335;43.198;27.918;2022-07-19T00:53:44;11.43;;;5.67;;
6598;SDS011;3335;43.198;27.918;2022-07-19T00:56:12;8.23;;;5.53;;
6598;SDS011;3335;43.198;27.918;2022-07-19T00:58:39;10.70;;;5.27;;
6598;SDS011;3335;43.198;27.918;2022-07-19T01:01:08;9.07;;;5.10;;
6598;SDS011;3335;43.198;27.918;2022-07-19T01:03:36;7.10;;;4.37;;
6598;SDS011;3335;43.198;27.918;2022-07-19T01:06:05;9.97;;;4.73;;
6598;SDS011;3335;43.198;27.918;2022-07-19T01:08:33;8.27;;;4.93;;
6598;SDS011;3335;43.198;27.918;2022-07-19T01:11:02;6.80;;;4.57;;
6598;SDS011;3335;43.198;27.918;2022-07-19T01:13:29;8.10;;;4.83;;
6598;SDS011;3335;43.198;27.918;2022-07-19T01:15:57;11.60;;;5.23;;
6598;SDS011;3335;43.198;27.918;2022-07-19T01:18:24;8.40;;;5.00;;
6598;SDS011;3335;43.198;27.918;2022-07-19T01:20:51;7.20;;;4.33;;
6598;SDS011;3335;43.198;27.918;2022-07-19T01:23:19;9.93;;;4.60;;
6598;SDS011;3335;43.198;27.918;2022-07-19T01:25:46;6.20;;;4.47;;
6598;SDS011;3335;43.198;27.918;2022-07-19T01:28:13;9.13;;;4.73;;
6598;SDS011;3335;43.198;27.918;2022-07-19T01:30:40;5.73;;;4.60;;
6598;SDS011;3335;43.198;27.918;2022-07-19T01:33:08;7.50;;;4.97;;
6598;SDS011;3335;43.198;27.918;2022-07-19T01:35:34;8.40;;;4.13;;
6598;SDS011;3335;43.198;27.918;2022-07-19T01:38:01;5.77;;;3.73;;
6598;SDS011;3335;43.198;27.918;2022-07-19T01:40:30;6.50;;;4.13;;
6598;SDS011;3335;43.198;27.918;2022-07-19T01:42:58;6.13;;;4.10;;
6598;SDS011;3335;43.198;27.918;2022-07-19T01:45:25;8.03;;;4.43;;
6598;SDS011;3335;43.198;27.918;2022-07-19T01:47:52;8.80;;;4.53;;
6598;SDS011;3335;43.198;27.918;2022-07-19T01:50:20;10.37;;;4.70;;
6598;SDS011;3335;43.198;27.918;2022-07-19T01:52:47;6.20;;;3.97;;
6598;SDS011;3335;43.198;27.918;2022-07-19T01:55:14;15.17;;;4.97;;
6598;SDS011;3335;43.198;27.918;2022-07-19T01:57:42;7.27;;;4.10;;
6598;SDS011;3335;43.198;27.918;2022-07-19T02:00:09;8.17;;;4.47;;
6598;SDS011;3335;43.198;27.918;2022-07-19T02:02:37;6.40;;;4.17;;
6598;SDS011;3335;43.198;27.918;2022-07-19T02:05:04;7.83;;;4.50;;
6598;SDS011;3335;43.198;27.918;2022-07-19T02:07:32;8.80;;;4.53;;
6598;SDS011;3335;43.198;27.918;2022-07-19T02:09:59;9.63;;;4.33;;
6598;SDS011;3335;43.198;27.918;2022-07-19T02:12:26;9.00;;;5.13;;
6598;SDS011;3335;43.198;27.918;2022-07-19T02:14:55;11.20;;;5.43;;
6598;SDS011;3335;43.198;27.918;2022-07-19T02:17:22;9.37;;;4.63;;
6598;SDS011;3335;43.198;27.918;2022-07-19T02:19:49;6.77;;;4.33;;
6598;SDS011;3335;43.198;27.918;2022-07-19T02:22:16;8.40;;;4.77;;
6598;SDS011;3335;43.198;27.918;2022-07-19T02:24:42;6.03;;;4.40;;
6598;SDS011;3335;43.198;27.918;2022-07-19T02:27:09;8.20;;;4.70;;
6598;SDS011;3335;43.198;27.918;2022-07-19T02:29:37;7.00;;;4.57;;
6598;SDS011;3335;43.198;27.918;2022-07-19T02:32:06;8.37;;;4.83;;
6598;SDS011;3335;43.198;27.918;2022-07-19T02:34:33;9.20;;;4.87;;
6598;SDS011;3335;43.198;27.918;2022-07-19T02:37:01;8.33;;;4.83;;
6598;SDS011;3335;43.198;27.918;2022-07-19T02:39:28;9.33;;;4.87;;
6598;SDS011;3335;43.198;27.918;2022-07-19T02:41:55;9.67;;;4.40;;
6598;SDS011;3335;43.198;27.918;2022-07-19T02:44:22;7.50;;;4.17;;
6598;SDS011;3335;43.198;27.918;2022-07-19T02:46:49;7.77;;;4.23;;
6598;SDS011;3335;43.198;27.918;2022-07-19T02:49:18;12.13;;;5.00;;
6598;SDS011;3335;43.198;27.918;2022-07-19T02:51:45;7.33;;;5.03;;
6598;SDS011;3335;43.198;27.918;2022-07-19T02:54:12;12.23;;;4.60;;
6598;SDS011;3335;43.198;27.918;2022-07-19T02:56:40;11.77;;;4.67;;
6598;SDS011;3335;43.198;27.918;2022-07-19T02:59:06;10.87;;;5.00;;
6598;SDS011;3335;43.198;27.918;2022-07-19T03:01:33;8.23;;;5.33;;
6598;SDS011;3335;43.198;27.918;2022-07-19T03:04:00;8.50;;;4.17;;
6598;SDS011;3335;43.198;27.918;2022-07-19T03:06:29;7.43;;;4.57;;
6598;SDS011;3335;43.198;27.918;2022-07-19T03:08:55;8.87;;;4.80;;
6598;SDS011;3335;43.198;27.918;2022-07-19T03:11:23;8.87;;;5.00;;
6598;SDS011;3335;43.198;27.918;2022-07-19T03:13:49;11.80;;;4.87;;
6598;SDS011;3335;43.198;27.918;2022-07-19T03:16:16;7.83;;;4.70;;
6598;SDS011;3335;43.198;27.918;2022-07-19T03:18:43;7.63;;;4.57;;
6598;SDS011;3335;43.198;27.918;2022-07-19T03:21:10;8.37;;;5.37;;
6598;SDS011;3335;43.198;27.918;2022-07-19T03:23:38;7.47;;;4.83;;
6598;SDS011;3335;43.198;27.918;2022-07-19T03:26:05;8.60;;;4.83;;
6598;SDS011;3335;43.198;27.918;2022-07-19T03:28:32;7.40;;;4.60;;
6598;SDS011;3335;43.198;27.918;2022-07-19T03:31:00;10.17;;;4.50;;
6598;SDS011;3335;43.198;27.918;2022-07-19T03:33:28;7.03;;;3.57;;
6598;SDS011;3335;43.198;27.918;2022-07-19T03:35:55;5.63;;;3.83;;
6598;SDS011;3335;43.198;27.918;2022-07-19T03:38:22;6.07;;;3.83;;
6598;SDS011;3335;43.198;27.918;2022-07-19T03:40:50;7.27;;;4.10;;
6598;SDS011;3335;43.198;27.918;2022-07-19T03:43:18;5.40;;;4.10;;
6598;SDS011;3335;43.198;27.918;2022-07-19T03:45:46;9.03;;;3.83;;
6598;SDS011;3335;43.198;27.918;2022-07-19T03:48:13;5.87;;;4.70;;
6598;SDS011;3335;43.198;27.918;2022-07-19T03:50:40;12.47;;;4.27;;
6598;SDS011;3335;43.198;27.918;2022-07-19T03:53:07;7.53;;;4.07;;
6598;SDS011;3335;43.198;27.918;2022-07-19T03:55:34;8.50;;;4.40;;
6598;SDS011;3335;43.198;27.918;2022-07-19T03:58:02;5.97;;;3.70;;
6598;SDS011;3335;43.198;27.918;2022-07-19T04:00:29;5.57;;;3.90;;
6598;SDS011;3335;43.198;27.918;2022-07-19T04:02:56;8.37;;;4.23;;
6598;SDS011;3335;43.198;27.918;2022-07-19T04:05:23;6.63;;;3.87;;
6598;SDS011;3335;43.198;27.918;2022-07-19T04:07:50;7.13;;;4.07;;
6598;SDS011;3335;43.198;27.918;2022-07-19T04:10:17;6.17;;;3.90;;
6598;SDS011;3335;43.198;27.918;2022-07-19T04:12:44;7.50;;;3.97;;
6598;SDS011;3335;43.198;27.918;2022-07-19T04:15:13;8.20;;;4.13;;
6598;SDS011;3335;43.198;27.918;2022-07-19T04:17:40;5.93;;;3.90;;
6598;SDS011;3335;43.198;27.918;2022-07-19T04:20:08;5.73;;;3.93;;
6598;SDS011;3335;43.198;27.918;2022-07-19T04:22:36;8.50;;;4.47;;
6598;SDS011;3335;43.198;27.918;2022-07-19T04:25:04;5.23;;;3.90;;
6598;SDS011;3335;43.198;27.918;2022-07-19T04:27:31;11.97;;;4.03;;
6598;SDS011;3335;43.198;27.918;2022-07-19T04:29:58;7.73;;;4.53;;
6598;SDS011;3335;43.198;27.918;2022-07-19T04:32:26;7.07;;;4.57;;
6598;SDS011;3335;43.198;27.918;2022-07-19T04:34:54;7.63;;;4.20;;
6598;SDS011;3335;43.198;27.918;2022-07-19T04:37:21;6.43;;;4.50;;
6598;SDS011;3335;43.198;27.918;2022-07-19T04:39:48;11.30;;;4.33;;
6598;SDS011;3335;43.198;27.918;2022-07-19T04:42:15;12.67;;;4.10;;
6598;SDS011;3335;43.198;27.918;2022-07-19T04:44:41;7.60;;;4.33;;
6598;SDS011;3335;43.198;27.918;2022-07-19T04:47:08;7.67;;;4.57;;
6598;SDS011;3335;43.198;27.918;2022-07-19T04:49:37;4.67;;;3.57;;
6598;SDS011;3335;43.198;27.918;2022-07-19T04:52:04;5.70;;;3.97;;
6598;SDS011;3335;43.198;27.918;2022-07-19T04:54:32;6.57;;;3.57;;
6598;SDS011;3335;43.198;27.918;2022-07-19T04:56:59;6.23;;;3.80;;
6598;SDS011;3335;43.198;27.918;2022-07-19T04:59:25;6.13;;;4.17;;
6598;SDS011;3335;43.198;27.918;2022-07-19T05:01:52;12.83;;;4.70;;
6598;SDS011;3335;43.198;27.918;2022-07-19T05:04:19;9.73;;;4.77;;
6598;SDS011;3335;43.198;27.918;2022-07-19T05:06:48;7.50;;;4.93;;
6598;SDS011;3335;43.198;27.918;2022-07-19T05:09:16;10.03;;;5.40;;
6598;SDS011;3335;43.198;27.918;2022-07-19T05:11:45;6.50;;;4.50;;
6598;SDS011;3335;43.198;27.918;2022-07-19T05:14:12;7.47;;;4.83;;
6598;SDS011;3335;43.198;27.918;2022-07-19T05:16:39;8.67;;;5.23;;
6598;SDS011;3335;43.198;27.918;2022-07-19T05:19:06;7.77;;;5.00;;
6598;SDS011;3335;43.198;27.918;2022-07-19T05:21:33;11.17;;;5.20;;
6598;SDS011;3335;43.198;27.918;2022-07-19T05:24:01;6.93;;;4.83;;
6598;SDS011;3335;43.198;27.918;2022-07-19T05:26:28;7.13;;;4.43;;
6598;SDS011;3335;43.198;27.918;2022-07-19T05:28:56;9.63;;;4.97;;
6598;SDS011;3335;43.198;27.918;2022-07-19T05:31:23;10.47;;;4.87;;
6598;SDS011;3335;43.198;27.918;2022-07-19T05:33:50;7.60;;;5.37;;
6598;SDS011;3335;43.198;27.918;2022-07-19T05:36:17;9.80;;;5.63;;
6598;SDS011;3335;43.198;27.918;2022-07-19T05:38:45;5.27;;;3.90;;
6598;SDS011;3335;43.198;27.918;2022-07-19T05:41:18;6.90;;;3.83;;
6598;SDS011;3335;43.198;27.918;2022-07-19T05:43:47;12.67;;;4.30;;
6598;SDS011;3335;43.198;27.918;2022-07-19T05:46:14;6.83;;;4.53;;
6598;SDS011;3335;43.198;27.918;2022-07-19T05:48:42;11.27;;;4.33;;
6598;SDS011;3335;43.198;27.918;2022-07-19T05:51:09;8.30;;;3.80;;
6598;SDS011;3335;43.198;27.918;2022-07-19T05:53:36;6.70;;;3.00;;
6598;SDS011;3335;43.198;27.918;2022-07-19T05:56:03;5.13;;;3.43;;
6598;SDS011;3335;43.198;27.918;2022-07-19T05:58:32;6.83;;;3.97;;
6598;SDS011;3335;43.198;27.918;2022-07-19T06:00:59;8.93;;;3.80;;
6598;SDS011;3335;43.198;27.918;2022-07-19T06:03:52;5.27;;;3.30;;
6598;SDS011;3335;43.198;27.918;2022-07-19T06:06:20;6.93;;;3.17;;
6598;SDS011;3335;43.198;27.918;2022-07-19T06:08:48;4.83;;;3.43;;
6598;SDS011;3335;43.198;27.918;2022-07-19T06:11:15;5.90;;;3.40;;
6598;SDS011;3335;43.198;27.918;2022-07-19T06:13:45;5.70;;;3.70;;
6598;SDS011;3335;43.198;27.918;2022-07-19T06:16:12;5.53;;;3.77;;
6598;SDS011;3335;43.198;27.918;2022-07-19T06:18:39;6.90;;;4.80;;
6598;SDS011;3335;43.198;27.918;2022-07-19T06:21:07;10.37;;;4.97;;
6598;SDS011;3335;43.198;27.918;2022-07-19T06:23:36;7.13;;;4.20;;
6598;SDS011;3335;43.198;27.918;2022-07-19T06:26:04;5.07;;;4.20;;
6598;SDS011;3335;43.198;27.918;2022-07-19T06:28:32;10.27;;;4.30;;
6598;SDS011;3335;43.198;27.918;2022-07-19T06:31:01;5.43;;;3.90;;
6598;SDS011;3335;43.198;27.918;2022-07-19T06:33:28;4.47;;;3.50;;
6598;SDS011;3335;43.198;27.918;2022-07-19T06:35:55;4.47;;;2.80;;
6598;SDS011;3335;43.198;27.918;2022-07-19T06:38:22;3.80;;;2.47;;
6598;SDS011;3335;43.198;27.918;2022-07-19T06:40:49;5.77;;;3.30;;
6598;SDS011;3335;43.198;27.918;2022-07-19T06:43:16;4.17;;;2.20;;
6598;SDS011;3335;43.198;27.918;2022-07-19T06:45:45;3.73;;;1.90;;
6598;SDS011;3335;43.198;27.918;2022-07-19T06:48:13;4.23;;;2.10;;
6598;SDS011;3335;43.198;27.918;2022-07-19T06:50:40;4.73;;;1.90;;
6598;SDS011;3335;43.198;27.918;2022-07-19T06:53:07;2.53;;;1.93;;
6598;SDS011;3335;43.198;27.918;2022-07-19T06:55:34;2.90;;;2.40;;
6598;SDS011;3335;43.198;27.918;2022-07-19T06:58:01;6.67;;;2.70;;
6598;SDS011;3335;43.198;27.918;2022-07-19T07:00:28;4.03;;;2.70;;
6598;SDS011;3335;43.198;27.918;2022-07-19T07:02:55;3.67;;;2.60;;
6598;SDS011;3335;43.198;27.918;2022-07-19T07:05:24;4.97;;;2.07;;
6598;SDS011;3335;43.198;27.918;2022-07-19T07:07:51;3.23;;;1.73;;
6598;SDS011;3335;43.198;27.918;2022-07-19T07:10:19;3.17;;;1.40;;
6598;SDS011;3335;43.198;27.918;2022-07-19T07:12:47;2.20;;;1.60;;
6598;SDS011;3335;43.198;27.918;2022-07-19T07:15:14;1.40;;;1.30;;
6598;SDS011;3335;43.198;27.918;2022-07-19T07:17:41;1.47;;;1.37;;
6598;SDS011;3335;43.198;27.918;2022-07-19T07:20:09;1.40;;;1.20;;
6598;SDS011;3335;43.198;27.918;2022-07-19T07:22:38;1.40;;;1.13;;
6598;SDS011;3335;43.198;27.918;2022-07-19T07:25:05;1.27;;;1.10;;
6598;SDS011;3335;43.198;27.918;2022-07-19T07:27:33;1.43;;;1.30;;
6598;SDS011;3335;43.198;27.918;2022-07-19T07:30:00;3.37;;;1.30;;
6598;SDS011;3335;43.198;27.918;2022-07-19T07:32:27;1.23;;;1.07;;
6598;SDS011;3335;43.198;27.918;2022-07-19T07:34:54;1.97;;;1.10;;
6598;SDS011;3335;43.198;27.918;2022-07-19T07:37:21;1.30;;;1.20;;
6598;SDS011;3335;43.198;27.918;2022-07-19T07:39:49;0.90;;;0.90;;
6598;SDS011;3335;43.198;27.918;2022-07-19T07:42:16;3.43;;;1.40;;
6598;SDS011;3335;43.198;27.918;2022-07-19T07:44:43;2.10;;;1.03;;
6598;SDS011;3335;43.198;27.918;2022-07-19T07:47:10;2.40;;;1.20;;
6598;SDS011;3335;43.198;27.918;2022-07-19T07:49:37;1.40;;;1.20;;
6598;SDS011;3335;43.198;27.918;2022-07-19T07:52:04;2.10;;;1.20;;
6598;SDS011;3335;43.198;27.918;2022-07-19T07:54:32;3.20;;;1.10;;
6598;SDS011;3335;43.198;27.918;2022-07-19T07:57:00;2.53;;;1.40;;
6598;SDS011;3335;43.198;27.918;2022-07-19T07:59:27;5.83;;;1.77;;
6598;SDS011;3335;43.198;27.918;2022-07-19T08:01:54;2.67;;;1.13;;
6598;SDS011;3335;43.198;27.918;2022-07-19T08:04:21;7.63;;;1.90;;
6598;SDS011;3335;43.198;27.918;2022-07-19T08:06:48;4.23;;;1.37;;
6598;SDS011;3335;43.198;27.918;2022-07-19T08:09:14;4.83;;;1.40;;
6598;SDS011;3335;43.198;27.918;2022-07-19T08:11:41;1.07;;;1.00;;
6598;SDS011;3335;43.198;27.918;2022-07-19T08:14:10;3.37;;;1.17;;
6598;SDS011;3335;43.198;27.918;2022-07-19T08:16:36;2.57;;;1.30;;
6598;SDS011;3335;43.198;27.918;2022-07-19T08:19:03;3.40;;;1.17;;
6598;SDS011;3335;43.198;27.918;2022-07-19T08:21:31;1.53;;;1.17;;
6598;SDS011;3335;43.198;27.918;2022-07-19T08:23:57;4.87;;;1.20;;
6598;SDS011;3335;43.198;27.918;2022-07-19T08:26:24;1.40;;;1.30;;
6598;SDS011;3335;43.198;27.918;2022-07-19T08:28:51;1.20;;;1.10;;
6598;SDS011;3335;43.198;27.918;2022-07-19T08:31:19;1.27;;;1.17;;
6598;SDS011;3335;43.198;27.918;2022-07-19T08:33:46;1.03;;;1.03;;
6598;SDS011;3335;43.198;27.918;2022-07-19T08:36:13;3.20;;;1.40;;
6598;SDS011;3335;43.198;27.918;2022-07-19T08:38:40;6.53;;;1.30;;
6598;SDS011;3335;43.198;27.918;2022-07-19T08:41:08;1.47;;;0.93;;
6598;SDS011;3335;43.198;27.918;2022-07-19T08:43:35;1.37;;;1.27;;
6598;SDS011;3335;43.198;27.918;2022-07-19T08:46:02;7.17;;;1.30;;
6598;SDS011;3335;43.198;27.918;2022-07-19T08:48:32;1.13;;;1.10;;
6598;SDS011;3335;43.198;27.918;2022-07-19T08:51:00;1.10;;;1.00;;
6598;SDS011;3335;43.198;27.918;2022-07-19T08:53:30;4.10;;;1.43;;
6598;SDS011;3335;43.198;27.918;2022-07-19T08:55:57;1.27;;;1.10;;
6598;SDS011;3335;43.198;27.918;2022-07-19T08:58:25;1.30;;;1.20;;
6598;SDS011;3335;43.198;27.918;2022-07-19T09:00:52;2.80;;;1.37;;
6598;SDS011;3335;43.198;27.918;2022-07-19T09:03:19;1.53;;;1.43;;
6598;SDS011;3335;43.198;27.918;2022-07-19T09:05:47;1.00;;;1.00;;
6598;SDS011;3335;43.198;27.918;2022-07-19T09:08:29;1.40;;;1.30;;
6598;SDS011;3335;43.198;27.918;2022-07-19T09:10:56;2.70;;;1.10;;
6598;SDS011;3335;43.198;27.918;2022-07-19T09:13:41;1.27;;;1.17;;
6598;SDS011;3335;43.198;27.918;2022-07-19T09:16:09;4.47;;;1.40;;
6598;SDS011;3335;43.198;27.918;2022-07-19T09:18:36;3.40;;;1.23;;
6598;SDS011;3335;43.198;27.918;2022-07-19T09:21:05;7.20;;;1.93;;
6598;SDS011;3335;43.198;27.918;2022-07-19T09:23:33;1.37;;;1.27;;
6598;SDS011;3335;43.198;27.918;2022-07-19T09:26:01;2.50;;;1.23;;
6598;SDS011;3335;43.198;27.918;2022-07-19T09:28:29;3.83;;;1.23;;
6598;SDS011;3335;43.198;27.918;2022-07-19T09:30:59;1.87;;;1.33;;
6598;SDS011;3335;43.198;27.918;2022-07-19T09:33:28;2.10;;;1.40;;
6598;SDS011;3335;43.198;27.918;2022-07-19T09:35:57;4.43;;;1.40;;
6598;SDS011;3335;43.198;27.918;2022-07-19T09:38:27;1.20;;;1.10;;
6598;SDS011;3335;43.198;27.918;2022-07-19T09:41:07;2.87;;;1.33;;
6598;SDS011;3335;43.198;27.918;2022-07-19T09:43:48;1.50;;;1.37;;
6598;SDS011;3335;43.198;27.918;2022-07-19T09:46:27;1.53;;;1.20;;
6598;SDS011;3335;43.198;27.918;2022-07-19T09:48:58;2.30;;;1.30;;
6598;SDS011;3335;43.198;27.918;2022-07-19T09:51:29;4.97;;;2.97;;
6598;SDS011;3335;43.198;27.918;2022-07-19T09:54:00;7.90;;;2.77;;
6598;SDS011;3335;43.198;27.918;2022-07-19T09:56:29;4.13;;;2.47;;
6598;SDS011;3335;43.198;27.918;2022-07-19T09:58:56;6.10;;;1.70;;
6598;SDS011;3335;43.198;27.918;2022-07-19T10:01:24;1.70;;;1.50;;
6598;SDS011;3335;43.198;27.918;2022-07-19T10:03:54;4.37;;;1.20;;
6598;SDS011;3335;43.198;27.918;2022-07-19T10:06:22;5.27;;;1.20;;
6598;SDS011;3335;43.198;27.918;2022-07-19T10:08:52;1.50;;;1.20;;
6598;SDS011;3335;43.198;27.918;2022-07-19T10:11:21;10.47;;;1.10;;
6598;SDS011;3335;43.198;27.918;2022-07-19T10:13:49;3.70;;;1.43;;
6598;SDS011;3335;43.198;27.918;2022-07-19T10:16:17;1.70;;;1.03;;
6598;SDS011;3335;43.198;27.918;2022-07-19T10:18:51;1.73;;;1.13;;
6598;SDS011;3335;43.198;27.918;2022-07-19T10:21:27;2.03;;;1.20;;
6598;SDS011;3335;43.198;27.918;2022-07-19T10:23:56;1.67;;;1.40;;
6598;SDS011;3335;43.198;27.918;2022-07-19T10:26:36;1.93;;;1.10;;
6598;SDS011;3335;43.198;27.918;2022-07-19T10:29:07;2.13;;;1.30;;
6598;SDS011;3335;43.198;27.918;2022-07-19T10:31:35;1.53;;;1.17;;
6598;SDS011;3335;43.198;27.918;2022-07-19T10:34:03;2.20;;;1.50;;
6598;SDS011;3335;43.198;27.918;2022-07-19T10:36:31;1.77;;;1.50;;
6598;SDS011;3335;43.198;27.918;2022-07-19T10:42:11;2.43;;;1.80;;
6598;SDS011;3335;43.198;27.918;2022-07-19T10:50:45;5.47;;;1.57;;
6598;SDS011;3335;43.198;27.918;2022-07-19T10:56:20;4.33;;;1.40;;
6598;SDS011;3335;43.198;27.918;2022-07-19T10:58:51;2.57;;;2.20;;
6598;SDS011;3335;43.198;27.918;2022-07-19T11:01:20;2.03;;;1.83;;
6598;SDS011;3335;43.198;27.918;2022-07-19T11:03:48;2.07;;;1.70;;
6598;SDS011;3335;43.198;27.918;2022-07-19T11:06:20;4.70;;;1.50;;
6598;SDS011;3335;43.198;27.918;2022-07-19T11:08:48;1.90;;;1.20;;
6598;SDS011;3335;43.198;27.918;2022-07-19T11:11:20;3.33;;;1.33;;
6598;SDS011;3335;43.198;27.918;2022-07-19T11:13:47;2.97;;;1.60;;
6598;SDS011;3335;43.198;27.918;2022-07-19T11:16:17;1.57;;;1.47;;
6598;SDS011;3335;43.198;27.918;2022-07-19T11:18:44;2.30;;;1.40;;
6598;SDS011;3335;43.198;27.918;2022-07-19T11:21:12;1.73;;;1.53;;
6598;SDS011;3335;43.198;27.918;2022-07-19T11:23:40;1.43;;;1.33;;
6598;SDS011;3335;43.198;27.918;2022-07-19T11:26:09;1.37;;;1.10;;
6598;SDS011;3335;43.198;27.918;2022-07-19T11:28:37;2.33;;;1.30;;
6598;SDS011;3335;43.198;27.918;2022-07-19T11:31:12;3.53;;;1.43;;
6598;SDS011;3335;43.198;27.918;2022-07-19T11:33:42;4.93;;;1.60;;
6598;SDS011;3335;43.198;27.918;2022-07-19T11:36:10;3.00;;;1.67;;
6598;SDS011;3335;43.198;27.918;2022-07-19T11:38:38;1.30;;;1.20;;
6598;SDS011;3335;43.198;27.918;2022-07-19T11:41:13;1.97;;;1.27;;
6598;SDS011;3335;43.198;27.918;2022-07-19T11:43:41;1.50;;;1.40;;
6598;SDS011;3335;43.198;27.918;2022-07-19T11:46:08;2.80;;;1.30;;
6598;SDS011;3335;43.198;27.918;2022-07-19T11:48:35;2.07;;;1.30;;
6598;SDS011;3335;43.198;27.918;2022-07-19T11:51:05;5.27;;;1.20;;
6598;SDS011;3335;43.198;27.918;2022-07-19T11:53:35;1.20;;;1.10;;
6598;SDS011;3335;43.198;27.918;2022-07-19T11:56:04;1.30;;;1.20;;
6598;SDS011;3335;43.198;27.918;2022-07-19T11:58:32;3.23;;;1.63;;
6598;SDS011;3335;43.198;27.918;2022-07-19T12:01:04;1.33;;;1.23;;
6598;SDS011;3335;43.198;27.918;2022-07-19T12:03:31;1.47;;;1.10;;
6598;SDS011;3335;43.198;27.918;2022-07-19T12:05:59;1.23;;;1.10;;
6598;SDS011;3335;43.198;27.918;2022-07-19T12:08:39;1.40;;;1.10;;
6598;SDS011;3335;43.198;27.918;2022-07-19T12:11:17;1.53;;;1.07;;
6598;SDS011;3335;43.198;27.918;2022-07-19T12:13:46;2.80;;;1.27;;
6598;SDS011;3335;43.198;27.918;2022-07-19T12:16:14;2.23;;;1.10;;
6598;SDS011;3335;43.198;27.918;2022-07-19T12:18:42;1.00;;;0.90;;
6598;SDS011;3335;43.198;27.918;2022-07-19T12:21:18;1.20;;;1.10;;
6598;SDS011;3335;43.198;27.918;2022-07-19T12:26:53;2.93;;;1.50;;
6598;SDS011;3335;43.198;27.918;2022-07-19T12:29:26;2.50;;;1.07;;
6598;SDS011;3335;43.198;27.918;2022-07-19T12:31:55;1.30;;;1.13;;
6598;SDS011;3335;43.198;27.918;2022-07-19T12:34:23;2.07;;;1.27;;
6598;SDS011;3335;43.198;27.918;2022-07-19T12:36:50;2.50;;;1.23;;
6598;SDS011;3335;43.198;27.918;2022-07-19T12:39:21;6.00;;;1.10;;
6598;SDS011;3335;43.198;27.918;2022-07-19T12:41:56;1.17;;;1.00;;
6598;SDS011;3335;43.198;27.918;2022-07-19T12:44:28;4.60;;;1.20;;
6598;SDS011;3335;43.198;27.918;2022-07-19T12:46:56;1.88;;;1.02;;
6598;SDS011;3335;43.198;27.918;2022-07-19T12:49:25;5.50;;;1.30;;
6598;SDS011;3335;43.198;27.918;2022-07-19T12:52:07;3.20;;;1.10;;
6598;SDS011;3335;43.198;27.918;2022-07-19T12:54:40;4.20;;;1.50;;
6598;SDS011;3335;43.198;27.918;2022-07-19T12:57:14;2.63;;;1.30;;
6598;SDS011;3335;43.198;27.918;2022-07-19T12:59:43;2.90;;;1.10;;
6598;SDS011;3335;43.198;27.918;2022-07-19T13:02:12;1.27;;;1.17;;
6598;SDS011;3335;43.198;27.918;2022-07-19T13:04:44;3.20;;;1.10;;
6598;SDS011;3335;43.198;27.918;2022-07-19T13:07:14;4.40;;;1.00;;
6598;SDS011;3335;43.198;27.918;2022-07-19T13:09:48;6.10;;;1.30;;
6598;SDS011;3335;43.198;27.918;2022-07-19T13:12:21;3.87;;;1.33;;
6598;SDS011;3335;43.198;27.918;2022-07-19T13:14:51;1.30;;;1.20;;
6598;SDS011;3335;43.198;27.918;2022-07-19T13:17:20;1.20;;;1.00;;
6598;SDS011;3335;43.198;27.918;2022-07-19T13:19:47;2.40;;;1.17;;
6598;SDS011;3335;43.198;27.918;2022-07-19T13:22:16;1.00;;;1.00;;
6598;SDS011;3335;43.198;27.918;2022-07-19T13:24:43;3.53;;;1.40;;
6598;SDS011;3335;43.198;27.918;2022-07-19T13:27:12;1.10;;;1.00;;
6598;SDS011;3335;43.198;27.918;2022-07-19T13:29:41;1.37;;;1.10;;
6598;SDS011;3335;43.198;27.918;2022-07-19T13:32:10;3.77;;;1.20;;
6598;SDS011;3335;43.198;27.918;2022-07-19T13:34:41;2.93;;;1.30;;
6598;SDS011;3335;43.198;27.918;2022-07-19T13:37:08;1.50;;;0.90;;
6598;SDS011;3335;43.198;27.918;2022-07-19T13:39:35;1.53;;;1.23;;
6598;SDS011;3335;43.198;27.918;2022-07-19T13:42:03;56.90;;;5.10;;
6598;SDS011;3335;43.198;27.918;2022-07-19T13:44:36;13.97;;;2.03;;
6598;SDS011;3335;43.198;27.918;2022-07-19T13:47:06;2.67;;;0.90;;
6598;SDS011;3335;43.198;27.918;2022-07-19T13:49:33;2.20;;;1.10;;
6598;SDS011;3335;43.198;27.918;2022-07-19T13:52:00;8.53;;;1.03;;
6598;SDS011;3335;43.198;27.918;2022-07-19T13:54:27;1.27;;;0.83;;
6598;SDS011;3335;43.198;27.918;2022-07-19T13:56:54;1.10;;;0.90;;
6598;SDS011;3335;43.198;27.918;2022-07-19T13:59:21;4.10;;;1.17;;
6598;SDS011;3335;43.198;27.918;2022-07-19T14:01:49;3.40;;;1.20;;
6598;SDS011;3335;43.198;27.918;2022-07-19T14:04:16;3.90;;;1.30;;
6598;SDS011;3335;43.198;27.918;2022-07-19T14:06:43;1.53;;;1.10;;
6598;SDS011;3335;43.198;27.918;2022-07-19T14:09:10;2.53;;;1.03;;
6598;SDS011;3335;43.198;27.918;2022-07-19T14:11:37;2.65;;;1.00;;
6598;SDS011;3335;43.198;27.918;2022-07-19T14:14:05;3.00;;;1.30;;
6598;SDS011;3335;43.198;27.918;2022-07-19T14:16:32;7.40;;;1.80;;
6598;SDS011;3335;43.198;27.918;2022-07-19T14:19:00;1.23;;;1.08;;
6598;SDS011;3335;43.198;27.918;2022-07-19T14:21:30;3.42;;;1.42;;
6598;SDS011;3335;43.198;27.918;2022-07-19T14:24:00;1.50;;;1.13;;
6598;SDS011;3335;43.198;27.918;2022-07-19T14:26:30;3.50;;;1.48;;
6598;SDS011;3335;43.198;27.918;2022-07-19T14:28:59;2.20;;;1.27;;
6598;SDS011;3335;43.198;27.918;2022-07-19T14:31:27;5.53;;;1.38;;
6598;SDS011;3335;43.198;27.918;2022-07-19T14:33:53;4.70;;;1.67;;
6598;SDS011;3335;43.198;27.918;2022-07-19T14:36:22;5.75;;;1.95;;
6598;SDS011;3335;43.198;27.918;2022-07-19T14:38:48;3.65;;;1.05;;
6598;SDS011;3335;43.198;27.918;2022-07-19T14:41:15;7.75;;;1.20;;
6598;SDS011;3335;43.198;27.918;2022-07-19T14:43:42;2.50;;;1.20;;
6598;SDS011;3335;43.198;27.918;2022-07-19T14:46:09;4.53;;;1.20;;
6598;SDS011;3335;43.198;27.918;2022-07-19T14:48:36;1.52;;;1.20;;
6598;SDS011;3335;43.198;27.918;2022-07-19T14:51:03;2.00;;;1.07;;
6598;SDS011;3335;43.198;27.918;2022-07-19T14:53:31;2.37;;;1.27;;
6598;SDS011;3335;43.198;27.918;2022-07-19T14:55:58;3.00;;;1.17;;
6598;SDS011;3335;43.198;27.918;2022-07-19T14:58:25;4.00;;;1.27;;
6598;SDS011;3335;43.198;27.918;2022-07-19T15:00:52;4.97;;;0.90;;
6598;SDS011;3335;43.198;27.918;2022-07-19T15:03:19;2.23;;;1.10;;
6598;SDS011;3335;43.198;27.918;2022-07-19T15:05:46;4.93;;;1.30;;
6598;SDS011;3335;43.198;27.918;2022-07-19T15:08:13;1.40;;;1.10;;
6598;SDS011;3335;43.198;27.918;2022-07-19T15:10:42;5.00;;;2.10;;
6598;SDS011;3335;43.198;27.918;2022-07-19T15:13:09;3.03;;;1.60;;
6598;SDS011;3335;43.198;27.918;2022-07-19T15:15:36;4.67;;;1.10;;
6598;SDS011;3335;43.198;27.918;2022-07-19T15:18:03;1.47;;;1.37;;
6598;SDS011;3335;43.198;27.918;2022-07-19T15:20:31;3.90;;;1.30;;
6598;SDS011;3335;43.198;27.918;2022-07-19T15:22:58;1.43;;;1.10;;